sensor_id;sensor_type;location;lat;lon;timestamp;P1;durP1;ratioP1;P2;durP2;ratioP2
55292;SDS011;41157;53.560;10.098;2023-04-24T00:00:59;3.80;;;3.50;;
55292;SDS011;41157;53.560;10.098;2023-04-24T00:03:26;5.43;;;3.77;;
55292;SDS011;41157;53.560;10.098;2023-04-24T00:05:54;4.83;;;3.87;;
55292;SDS011;41157;53.560;10.098;2023-04-24T00:08:21;4.20;;;3.80;;
55292;SDS011;41157;53.560;10.098;2023-04-24T00:10:48;9.97;;;3.63;;
55292;SDS011;41157;53.560;10.098;2023-04-24T00:13:17;4.60;;;4.13;;
55292;SDS011;41157;53.560;10.098;2023-04-24T00:15:44;6.37;;;4.13;;
55292;SDS011;41157;53.560;10.098;2023-04-24T00:18:12;3.77;;;3.47;;
55292;SDS011;41157;53.560;10.098;2023-04-24T00:20:39;4.57;;;4.17;;
55292;SDS011;41157;53.560;10.098;2023-04-24T00:23:06;4.77;;;3.83;;
55292;SDS011;41157;53.560;10.098;2023-04-24T00:25:33;5.67;;;4.00;;
55292;SDS011;41157;53.560;10.098;2023-04-24T00:28:00;5.63;;;3.93;;
55292;SDS011;41157;53.560;10.098;2023-04-24T00:30:27;5.93;;;4.07;;
55292;SDS011;41157;53.560;10.098;2023-04-24T00:32:54;4.57;;;4.03;;
55292;SDS011;41157;53.560;10.098;2023-04-24T00:35:22;5.20;;;4.20;;
55292;SDS011;41157;53.560;10.098;2023-04-24T00:37:49;8.13;;;4.00;;
55292;SDS011;41157;53.560;10.098;2023-04-24T00:40:16;4.30;;;3.90;;
55292;SDS011;41157;53.560;10.098;2023-04-24T00:42:43;5.00;;;4.10;;
55292;SDS011;41157;53.560;10.098;2023-04-24T00:45:10;7.43;;;4.60;;
55292;SDS011;41157;53.560;10.098;2023-04-24T00:47:38;4.33;;;3.90;;
55292;SDS011;41157;53.560;10.098;2023-04-24T00:50:06;6.77;;;4.30;;
55292;SDS011;41157;53.560;10.098;2023-04-24T00:52:35;5.87;;;3.93;;
55292;SDS011;41157;53.560;10.098;2023-04-24T00:55:02;5.47;;;4.20;;
55292;SDS011;41157;53.560;10.098;2023-04-24T00:57:30;6.27;;;4.30;;
55292;SDS011;41157;53.560;10.098;2023-04-24T00:59:57;5.97;;;4.23;;
55292;SDS011;41157;53.560;10.098;2023-04-24T01:02:25;4.73;;;4.33;;
55292;SDS011;41157;53.560;10.098;2023-04-24T01:04:53;5.83;;;5.00;;
55292;SDS011;41157;53.560;10.098;2023-04-24T01:07:21;5.97;;;4.20;;
55292;SDS011;41157;53.560;10.098;2023-04-24T01:09:50;4.97;;;4.40;;
55292;SDS011;41157;53.560;10.098;2023-04-24T01:12:17;4.77;;;4.37;;
55292;SDS011;41157;53.560;10.098;2023-04-24T01:14:44;5.80;;;4.97;;
55292;SDS011;41157;53.560;10.098;2023-04-24T01:17:11;4.93;;;4.43;;
55292;SDS011;41157;53.560;10.098;2023-04-24T01:19:38;7.20;;;4.87;;
55292;SDS011;41157;53.560;10.098;2023-04-24T01:22:11;5.43;;;4.27;;
55292;SDS011;41157;53.560;10.098;2023-04-24T01:24:38;7.07;;;4.40;;
55292;SDS011;41157;53.560;10.098;2023-04-24T01:27:05;5.20;;;4.47;;
55292;SDS011;41157;53.560;10.098;2023-04-24T01:29:32;7.07;;;4.30;;
55292;SDS011;41157;53.560;10.098;2023-04-24T01:32:00;6.53;;;4.70;;
55292;SDS011;41157;53.560;10.098;2023-04-24T01:34:27;4.50;;;4.10;;
55292;SDS011;41157;53.560;10.098;2023-04-24T01:36:54;4.70;;;4.20;;
55292;SDS011;41157;53.560;10.098;2023-04-24T01:39:23;5.67;;;4.07;;
55292;SDS011;41157;53.560;10.098;2023-04-24T01:41:50;9.00;;;4.33;;
55292;SDS011;41157;53.560;10.098;2023-04-24T01:44:18;5.13;;;4.10;;
55292;SDS011;41157;53.560;10.098;2023-04-24T01:46:45;5.03;;;3.93;;
55292;SDS011;41157;53.560;10.098;2023-04-24T01:49:12;4.00;;;3.70;;
55292;SDS011;41157;53.560;10.098;2023-04-24T01:51:40;6.37;;;3.80;;
55292;SDS011;41157;53.560;10.098;2023-04-24T01:54:07;4.00;;;3.60;;
55292;SDS011;41157;53.560;10.098;2023-04-24T01:56:35;3.90;;;3.37;;
55292;SDS011;41157;53.560;10.098;2023-04-24T01:59:03;3.63;;;3.30;;
55292;SDS011;41157;53.560;10.098;2023-04-24T02:01:32;4.30;;;3.07;;
55292;SDS011;41157;53.560;10.098;2023-04-24T02:04:01;3.57;;;3.27;;
55292;SDS011;41157;53.560;10.098;2023-04-24T02:06:28;3.30;;;3.00;;
55292;SDS011;41157;53.560;10.098;2023-04-24T02:08:56;3.90;;;2.90;;
55292;SDS011;41157;53.560;10.098;2023-04-24T02:11:23;3.30;;;3.00;;
55292;SDS011;41157;53.560;10.098;2023-04-24T02:13:51;2.97;;;2.60;;
55292;SDS011;41157;53.560;10.098;2023-04-24T02:16:18;2.57;;;2.33;;
55292;SDS011;41157;53.560;10.098;2023-04-24T02:18:45;2.93;;;2.60;;
55292;SDS011;41157;53.560;10.098;2023-04-24T02:21:12;2.70;;;2.50;;
55292;SDS011;41157;53.560;10.098;2023-04-24T02:23:39;2.83;;;2.50;;
55292;SDS011;41157;53.560;10.098;2023-04-24T02:26:06;3.50;;;2.70;;
55292;SDS011;41157;53.560;10.098;2023-04-24T02:28:33;2.47;;;2.30;;
55292;SDS011;41157;53.560;10.098;2023-04-24T02:31:01;2.43;;;2.23;;
55292;SDS011;41157;53.560;10.098;2023-04-24T02:33:28;2.60;;;2.40;;
55292;SDS011;41157;53.560;10.098;2023-04-24T02:35:55;2.40;;;2.20;;
55292;SDS011;41157;53.560;10.098;2023-04-24T02:38:22;3.60;;;2.47;;
55292;SDS011;41157;53.560;10.098;2023-04-24T02:40:49;2.50;;;2.03;;
55292;SDS011;41157;53.560;10.098;2023-04-24T02:43:17;3.10;;;2.17;;
55292;SDS011;41157;53.560;10.098;2023-04-24T02:45:44;2.40;;;2.20;;
55292;SDS011;41157;53.560;10.098;2023-04-24T02:48:12;2.63;;;2.10;;
55292;SDS011;41157;53.560;10.098;2023-04-24T02:50:39;4.43;;;2.40;;
55292;SDS011;41157;53.560;10.098;2023-04-24T02:53:06;2.73;;;2.10;;
55292;SDS011;41157;53.560;10.098;2023-04-24T02:55:33;4.40;;;1.80;;
55292;SDS011;41157;53.560;10.098;2023-04-24T02:58:00;2.67;;;1.90;;
55292;SDS011;41157;53.560;10.098;2023-04-24T03:00:27;1.87;;;1.77;;
55292;SDS011;41157;53.560;10.098;2023-04-24T03:02:54;2.20;;;1.80;;
55292;SDS011;41157;53.560;10.098;2023-04-24T03:05:23;4.57;;;1.80;;
55292;SDS011;41157;53.560;10.098;2023-04-24T03:07:50;2.00;;;1.87;;
55292;SDS011;41157;53.560;10.098;2023-04-24T03:10:18;2.03;;;1.93;;
55292;SDS011;41157;53.560;10.098;2023-04-24T03:12:45;2.73;;;1.60;;
55292;SDS011;41157;53.560;10.098;2023-04-24T03:15:12;2.30;;;1.97;;
55292;SDS011;41157;53.560;10.098;2023-04-24T03:17:39;1.40;;;1.30;;
55292;SDS011;41157;53.560;10.098;2023-04-24T03:20:06;1.70;;;1.60;;
55292;SDS011;41157;53.560;10.098;2023-04-24T03:22:35;1.70;;;1.60;;
55292;SDS011;41157;53.560;10.098;2023-04-24T03:25:02;1.57;;;1.47;;
55292;SDS011;41157;53.560;10.098;2023-04-24T03:27:30;1.53;;;1.43;;
55292;SDS011;41157;53.560;10.098;2023-04-24T03:29:57;1.60;;;1.50;;
55292;SDS011;41157;53.560;10.098;2023-04-24T03:32:24;3.20;;;1.50;;
55292;SDS011;41157;53.560;10.098;2023-04-24T03:34:50;2.03;;;1.60;;
55292;SDS011;41157;53.560;10.098;2023-04-24T03:37:18;1.47;;;1.37;;
55292;SDS011;41157;53.560;10.098;2023-04-24T03:39:46;2.47;;;1.57;;
55292;SDS011;41157;53.560;10.098;2023-04-24T03:42:13;1.30;;;1.30;;
55292;SDS011;41157;53.560;10.098;2023-04-24T03:44:41;2.47;;;1.60;;
55292;SDS011;41157;53.560;10.098;2023-04-24T03:47:08;1.60;;;1.50;;
55292;SDS011;41157;53.560;10.098;2023-04-24T03:49:35;1.50;;;1.40;;
55292;SDS011;41157;53.560;10.098;2023-04-24T03:52:02;1.17;;;1.17;;
55292;SDS011;41157;53.560;10.098;2023-04-24T03:54:29;1.47;;;1.37;;
55292;SDS011;41157;53.560;10.098;2023-04-24T03:56:57;2.00;;;1.53;;
55292;SDS011;41157;53.560;10.098;2023-04-24T03:59:25;1.87;;;1.60;;
55292;SDS011;41157;53.560;10.098;2023-04-24T04:01:52;1.60;;;1.50;;
55292;SDS011;41157;53.560;10.098;2023-04-24T04:04:19;2.07;;;1.50;;
55292;SDS011;41157;53.560;10.098;2023-04-24T04:06:46;1.77;;;1.60;;
55292;SDS011;41157;53.560;10.098;2023-04-24T04:09:13;1.37;;;1.27;;
55292;SDS011;41157;53.560;10.098;2023-04-24T04:11:40;1.30;;;1.20;;
55292;SDS011;41157;53.560;10.098;2023-04-24T04:14:08;1.63;;;1.53;;
55292;SDS011;41157;53.560;10.098;2023-04-24T04:16:35;1.30;;;1.20;;
55292;SDS011;41157;53.560;10.098;2023-04-24T04:19:02;1.17;;;1.17;;
55292;SDS011;41157;53.560;10.098;2023-04-24T04:21:30;2.90;;;1.30;;
55292;SDS011;41157;53.560;10.098;2023-04-24T04:23:57;1.40;;;1.30;;
55292;SDS011;41157;53.560;10.098;2023-04-24T04:26:24;1.37;;;1.37;;
55292;SDS011;41157;53.560;10.098;2023-04-24T04:28:52;1.37;;;1.27;;
55292;SDS011;41157;53.560;10.098;2023-04-24T04:31:20;1.50;;;1.40;;
55292;SDS011;41157;53.560;10.098;2023-04-24T04:33:48;1.53;;;1.43;;
55292;SDS011;41157;53.560;10.098;2023-04-24T04:36:15;1.73;;;1.40;;
55292;SDS011;41157;53.560;10.098;2023-04-24T04:38:42;3.50;;;1.43;;
55292;SDS011;41157;53.560;10.098;2023-04-24T04:41:09;1.50;;;1.40;;
55292;SDS011;41157;53.560;10.098;2023-04-24T04:43:36;1.87;;;1.60;;
55292;SDS011;41157;53.560;10.098;2023-04-24T04:46:04;1.77;;;1.40;;
55292;SDS011;41157;53.560;10.098;2023-04-24T04:48:34;1.30;;;1.23;;
55292;SDS011;41157;53.560;10.098;2023-04-24T04:51:02;1.00;;;1.00;;
55292;SDS011;41157;53.560;10.098;2023-04-24T04:53:29;3.00;;;1.70;;
55292;SDS011;41157;53.560;10.098;2023-04-24T04:55:56;1.83;;;1.43;;
55292;SDS011;41157;53.560;10.098;2023-04-24T04:58:23;1.97;;;1.63;;
55292;SDS011;41157;53.560;10.098;2023-04-24T05:00:50;2.13;;;1.20;;
55292;SDS011;41157;53.560;10.098;2023-04-24T05:03:17;1.47;;;1.37;;
55292;SDS011;41157;53.560;10.098;2023-04-24T05:05:46;1.80;;;1.20;;
55292;SDS011;41157;53.560;10.098;2023-04-24T05:08:13;1.30;;;1.20;;
55292;SDS011;41157;53.560;10.098;2023-04-24T05:10:40;3.90;;;1.20;;
55292;SDS011;41157;53.560;10.098;2023-04-24T05:13:07;1.33;;;1.23;;
55292;SDS011;41157;53.560;10.098;2023-04-24T05:15:34;1.10;;;1.10;;
55292;SDS011;41157;53.560;10.098;2023-04-24T05:18:01;1.73;;;1.37;;
55292;SDS011;41157;53.560;10.098;2023-04-24T05:20:28;1.03;;;1.00;;
55292;SDS011;41157;53.560;10.098;2023-04-24T05:22:57;2.33;;;1.20;;
55292;SDS011;41157;53.560;10.098;2023-04-24T05:25:24;1.10;;;1.10;;
55292;SDS011;41157;53.560;10.098;2023-04-24T05:27:51;1.20;;;1.10;;
55292;SDS011;41157;53.560;10.098;2023-04-24T05:30:18;2.20;;;1.30;;
55292;SDS011;41157;53.560;10.098;2023-04-24T05:32:45;3.97;;;1.50;;
55292;SDS011;41157;53.560;10.098;2023-04-24T05:35:12;1.23;;;1.10;;
55292;SDS011;41157;53.560;10.098;2023-04-24T05:37:39;1.87;;;1.20;;
55292;SDS011;41157;53.560;10.098;2023-04-24T05:40:09;3.30;;;1.17;;
55292;SDS011;41157;53.560;10.098;2023-04-24T05:42:36;1.30;;;1.20;;
55292;SDS011;41157;53.560;10.098;2023-04-24T05:45:03;1.77;;;1.10;;
55292;SDS011;41157;53.560;10.098;2023-04-24T05:47:30;3.63;;;1.27;;
55292;SDS011;41157;53.560;10.098;2023-04-24T05:49:57;1.60;;;1.20;;
55292;SDS011;41157;53.560;10.098;2023-04-24T05:52:24;1.00;;;1.00;;
55292;SDS011;41157;53.560;10.098;2023-04-24T05:54:51;1.80;;;1.23;;
55292;SDS011;41157;53.560;10.098;2023-04-24T05:57:20;1.03;;;1.03;;
55292;SDS011;41157;53.560;10.098;2023-04-24T05:59:46;1.10;;;1.00;;
55292;SDS011;41157;53.560;10.098;2023-04-24T06:02:13;1.57;;;1.20;;
55292;SDS011;41157;53.560;10.098;2023-04-24T06:04:41;1.07;;;0.97;;
55292;SDS011;41157;53.560;10.098;2023-04-24T06:07:08;2.10;;;1.23;;
55292;SDS011;41157;53.560;10.098;2023-04-24T06:09:36;1.30;;;1.20;;
55292;SDS011;41157;53.560;10.098;2023-04-24T06:12:03;1.23;;;1.10;;
55292;SDS011;41157;53.560;10.098;2023-04-24T06:14:33;2.80;;;1.33;;
55292;SDS011;41157;53.560;10.098;2023-04-24T06:17:00;1.50;;;1.40;;
55292;SDS011;41157;53.560;10.098;2023-04-24T06:19:27;2.87;;;1.10;;
55292;SDS011;41157;53.560;10.098;2023-04-24T06:21:54;1.37;;;1.27;;
55292;SDS011;41157;53.560;10.098;2023-04-24T06:24:21;2.00;;;1.23;;
55292;SDS011;41157;53.560;10.098;2023-04-24T06:26:48;2.97;;;1.43;;
55292;SDS011;41157;53.560;10.098;2023-04-24T06:29:15;1.30;;;1.20;;
55292;SDS011;41157;53.560;10.098;2023-04-24T06:31:44;1.20;;;1.20;;
55292;SDS011;41157;53.560;10.098;2023-04-24T06:34:11;1.97;;;1.30;;
55292;SDS011;41157;53.560;10.098;2023-04-24T06:36:38;2.03;;;1.20;;
55292;SDS011;41157;53.560;10.098;2023-04-24T06:39:05;1.50;;;1.40;;
55292;SDS011;41157;53.560;10.098;2023-04-24T06:41:32;2.07;;;1.50;;
55292;SDS011;41157;53.560;10.098;2023-04-24T06:43:59;4.33;;;1.40;;
55292;SDS011;41157;53.560;10.098;2023-04-24T06:46:26;3.50;;;1.50;;
55292;SDS011;41157;53.560;10.098;2023-04-24T06:48:55;1.40;;;1.30;;
55292;SDS011;41157;53.560;10.098;2023-04-24T06:51:22;3.20;;;1.57;;
55292;SDS011;41157;53.560;10.098;2023-04-24T06:53:49;1.93;;;1.53;;
55292;SDS011;41157;53.560;10.098;2023-04-24T06:56:16;1.70;;;1.60;;
55292;SDS011;41157;53.560;10.098;2023-04-24T06:58:44;1.70;;;1.50;;
55292;SDS011;41157;53.560;10.098;2023-04-24T07:01:11;1.90;;;1.50;;
55292;SDS011;41157;53.560;10.098;2023-04-24T07:03:38;1.47;;;1.37;;
55292;SDS011;41157;53.560;10.098;2023-04-24T07:06:06;2.23;;;2.00;;
55292;SDS011;41157;53.560;10.098;2023-04-24T07:08:33;5.60;;;4.53;;
55292;SDS011;41157;53.560;10.098;2023-04-24T07:11:00;4.67;;;1.70;;
55292;SDS011;41157;53.560;10.098;2023-04-24T07:13:27;1.57;;;1.47;;
55292;SDS011;41157;53.560;10.098;2023-04-24T07:15:54;1.70;;;1.60;;
55292;SDS011;41157;53.560;10.098;2023-04-24T07:18:22;1.93;;;1.83;;
55292;SDS011;41157;53.560;10.098;2023-04-24T07:20:49;3.13;;;1.70;;
55292;SDS011;41157;53.560;10.098;2023-04-24T07:23:19;4.27;;;1.77;;
55292;SDS011;41157;53.560;10.098;2023-04-24T07:25:46;3.00;;;2.00;;
55292;SDS011;41157;53.560;10.098;2023-04-24T07:28:13;2.03;;;1.80;;
55292;SDS011;41157;53.560;10.098;2023-04-24T07:30:40;2.37;;;1.70;;
55292;SDS011;41157;53.560;10.098;2023-04-24T07:33:07;2.30;;;2.10;;
55292;SDS011;41157;53.560;10.098;2023-04-24T07:35:36;2.77;;;2.10;;
55292;SDS011;41157;53.560;10.098;2023-04-24T07:38:03;1.97;;;1.80;;
55292;SDS011;41157;53.560;10.098;2023-04-24T07:40:32;3.53;;;2.30;;
55292;SDS011;41157;53.560;10.098;2023-04-24T07:42:59;2.53;;;2.27;;
55292;SDS011;41157;53.560;10.098;2023-04-24T07:45:26;3.23;;;2.03;;
55292;SDS011;41157;53.560;10.098;2023-04-24T07:47:53;3.20;;;1.80;;
55292;SDS011;41157;53.560;10.098;2023-04-24T07:50:20;3.20;;;2.33;;
55292;SDS011;41157;53.560;10.098;2023-04-24T07:52:47;2.33;;;2.13;;
55292;SDS011;41157;53.560;10.098;2023-04-24T07:55:14;2.40;;;2.30;;
55292;SDS011;41157;53.560;10.098;2023-04-24T07:57:43;3.97;;;2.20;;
55292;SDS011;41157;53.560;10.098;2023-04-24T08:00:10;2.20;;;2.00;;
55292;SDS011;41157;53.560;10.098;2023-04-24T08:02:37;4.77;;;2.00;;
55292;SDS011;41157;53.560;10.098;2023-04-24T08:05:05;2.50;;;2.30;;
55292;SDS011;41157;53.560;10.098;2023-04-24T08:07:32;6.30;;;2.40;;
55292;SDS011;41157;53.560;10.098;2023-04-24T08:10:00;2.87;;;2.30;;
55292;SDS011;41157;53.560;10.098;2023-04-24T08:12:27;2.87;;;2.60;;
55292;SDS011;41157;53.560;10.098;2023-04-24T08:14:56;3.03;;;2.50;;
55292;SDS011;41157;53.560;10.098;2023-04-24T08:17:23;3.03;;;2.70;;
55292;SDS011;41157;53.560;10.098;2023-04-24T08:19:50;2.97;;;2.60;;
55292;SDS011;41157;53.560;10.098;2023-04-24T08:22:24;4.37;;;2.63;;
55292;SDS011;41157;53.560;10.098;2023-04-24T08:24:51;3.47;;;2.60;;
55292;SDS011;41157;53.560;10.098;2023-04-24T08:27:18;2.70;;;2.50;;
55292;SDS011;41157;53.560;10.098;2023-04-24T08:29:45;4.67;;;2.70;;
55292;SDS011;41157;53.560;10.098;2023-04-24T08:32:13;2.80;;;2.60;;
55292;SDS011;41157;53.560;10.098;2023-04-24T08:34:40;3.70;;;3.00;;
55292;SDS011;41157;53.560;10.098;2023-04-24T08:37:07;3.93;;;2.90;;
55292;SDS011;41157;53.560;10.098;2023-04-24T08:39:34;3.90;;;3.00;;
55292;SDS011;41157;53.560;10.098;2023-04-24T08:42:01;3.43;;;2.80;;
55292;SDS011;41157;53.560;10.098;2023-04-24T08:44:32;3.30;;;3.00;;
55292;SDS011;41157;53.560;10.098;2023-04-24T08:47:00;4.87;;;2.97;;
55292;SDS011;41157;53.560;10.098;2023-04-24T08:49:28;4.00;;;3.60;;
55292;SDS011;41157;53.560;10.098;2023-04-24T08:51:55;3.50;;;3.20;;
55292;SDS011;41157;53.560;10.098;2023-04-24T08:54:24;3.53;;;3.00;;
55292;SDS011;41157;53.560;10.098;2023-04-24T08:56:51;3.10;;;2.80;;
55292;SDS011;41157;53.560;10.098;2023-04-24T08:59:20;5.53;;;2.90;;
55292;SDS011;41157;53.560;10.098;2023-04-24T09:01:48;3.10;;;2.90;;
55292;SDS011;41157;53.560;10.098;2023-04-24T09:04:16;3.00;;;2.53;;
55292;SDS011;41157;53.560;10.098;2023-04-24T09:06:46;2.80;;;2.60;;
55292;SDS011;41157;53.560;10.098;2023-04-24T09:09:14;7.27;;;3.13;;
55292;SDS011;41157;53.560;10.098;2023-04-24T09:11:43;3.70;;;3.10;;
55292;SDS011;41157;53.560;10.098;2023-04-24T09:14:10;3.23;;;2.90;;
55292;SDS011;41157;53.560;10.098;2023-04-24T09:16:37;3.40;;;3.10;;
55292;SDS011;41157;53.560;10.098;2023-04-24T09:19:04;4.10;;;2.70;;
55292;SDS011;41157;53.560;10.098;2023-04-24T09:21:31;3.27;;;2.97;;
55292;SDS011;41157;53.560;10.098;2023-04-24T09:24:00;4.03;;;3.17;;
55292;SDS011;41157;53.560;10.098;2023-04-24T09:26:29;3.93;;;3.00;;
55292;SDS011;41157;53.560;10.098;2023-04-24T09:28:57;6.67;;;3.20;;
55292;SDS011;41157;53.560;10.098;2023-04-24T09:31:26;4.80;;;3.40;;
55292;SDS011;41157;53.560;10.098;2023-04-24T09:33:53;3.37;;;3.07;;
55292;SDS011;41157;53.560;10.098;2023-04-24T09:36:26;6.17;;;3.53;;
55292;SDS011;41157;53.560;10.098;2023-04-24T09:38:55;4.00;;;3.60;;
55292;SDS011;41157;53.560;10.098;2023-04-24T09:41:25;6.00;;;3.27;;
55292;SDS011;41157;53.560;10.098;2023-04-24T09:43:53;4.83;;;3.57;;
55292;SDS011;41157;53.560;10.098;2023-04-24T09:46:20;5.07;;;4.57;;
55292;SDS011;41157;53.560;10.098;2023-04-24T09:48:47;3.40;;;3.20;;
55292;SDS011;41157;53.560;10.098;2023-04-24T09:51:14;6.33;;;3.80;;
55292;SDS011;41157;53.560;10.098;2023-04-24T09:53:45;3.93;;;3.30;;
55292;SDS011;41157;53.560;10.098;2023-04-24T09:56:12;3.80;;;3.50;;
55292;SDS011;41157;53.560;10.098;2023-04-24T09:58:40;3.77;;;3.43;;
55292;SDS011;41157;53.560;10.098;2023-04-24T10:01:07;4.17;;;3.40;;
55292;SDS011;41157;53.560;10.098;2023-04-24T10:03:35;5.37;;;3.77;;
55292;SDS011;41157;53.560;10.098;2023-04-24T10:06:02;5.10;;;3.87;;
55292;SDS011;41157;53.560;10.098;2023-04-24T10:08:33;5.87;;;4.00;;
55292;SDS011;41157;53.560;10.098;2023-04-24T10:11:00;4.40;;;4.00;;
55292;SDS011;41157;53.560;10.098;2023-04-24T10:13:28;7.67;;;4.43;;
55292;SDS011;41157;53.560;10.098;2023-04-24T10:15:56;5.23;;;4.20;;
55292;SDS011;41157;53.560;10.098;2023-04-24T10:18:25;5.30;;;4.47;;
55292;SDS011;41157;53.560;10.098;2023-04-24T10:20:53;5.03;;;4.53;;
55292;SDS011;41157;53.560;10.098;2023-04-24T10:23:21;5.57;;;4.50;;
55292;SDS011;41157;53.560;10.098;2023-04-24T10:25:48;5.93;;;4.30;;
55292;SDS011;41157;53.560;10.098;2023-04-24T10:28:15;7.77;;;4.97;;
55292;SDS011;41157;53.560;10.098;2023-04-24T10:30:44;5.53;;;4.73;;
55292;SDS011;41157;53.560;10.098;2023-04-24T10:33:13;9.90;;;4.93;;
55292;SDS011;41157;53.560;10.098;2023-04-24T10:35:41;6.30;;;5.47;;
55292;SDS011;41157;53.560;10.098;2023-04-24T10:38:10;8.30;;;5.50;;
55292;SDS011;41157;53.560;10.098;2023-04-24T10:40:38;6.77;;;6.07;;
55292;SDS011;41157;53.560;10.098;2023-04-24T10:43:05;7.43;;;6.00;;
55292;SDS011;41157;53.560;10.098;2023-04-24T10:45:33;6.40;;;5.33;;
55292;SDS011;41157;53.560;10.098;2023-04-24T10:48:01;8.47;;;5.97;;
55292;SDS011;41157;53.560;10.098;2023-04-24T10:50:29;9.53;;;6.23;;
55292;SDS011;41157;53.560;10.098;2023-04-24T10:53:05;8.27;;;6.37;;
55292;SDS011;41157;53.560;10.098;2023-04-24T10:58:17;8.47;;;6.77;;
55292;SDS011;41157;53.560;10.098;2023-04-24T11:00:55;12.07;;;7.33;;
55292;SDS011;41157;53.560;10.098;2023-04-24T11:03:23;9.30;;;6.90;;
55292;SDS011;41157;53.560;10.098;2023-04-24T11:05:52;8.60;;;7.30;;
55292;SDS011;41157;53.560;10.098;2023-04-24T11:08:24;8.33;;;5.43;;
55292;SDS011;41157;53.560;10.098;2023-04-24T11:10:56;10.43;;;7.33;;
55292;SDS011;41157;53.560;10.098;2023-04-24T11:13:23;8.13;;;5.97;;
55292;SDS011;41157;53.560;10.098;2023-04-24T11:18:37;8.83;;;5.90;;
55292;SDS011;41157;53.560;10.098;2023-04-24T11:21:10;6.97;;;6.27;;
55292;SDS011;41157;53.560;10.098;2023-04-24T11:23:38;9.20;;;5.97;;
55292;SDS011;41157;53.560;10.098;2023-04-24T11:26:11;8.57;;;6.30;;
55292;SDS011;41157;53.560;10.098;2023-04-24T11:28:44;10.17;;;6.87;;
55292;SDS011;41157;53.560;10.098;2023-04-24T11:33:57;8.30;;;5.77;;
55292;SDS011;41157;53.560;10.098;2023-04-24T11:36:32;12.10;;;6.90;;
55292;SDS011;41157;53.560;10.098;2023-04-24T11:38:59;11.10;;;5.80;;
55292;SDS011;41157;53.560;10.098;2023-04-24T11:41:26;8.50;;;5.87;;
55292;SDS011;41157;53.560;10.098;2023-04-24T11:43:53;8.87;;;6.07;;
55292;SDS011;41157;53.560;10.098;2023-04-24T11:46:21;7.23;;;6.33;;
55292;SDS011;41157;53.560;10.098;2023-04-24T11:48:48;11.17;;;5.97;;
55292;SDS011;41157;53.560;10.098;2023-04-24T11:51:15;8.03;;;6.20;;
55292;SDS011;41157;53.560;10.098;2023-04-24T11:53:43;9.67;;;5.63;;
55292;SDS011;41157;53.560;10.098;2023-04-24T11:56:12;6.60;;;5.70;;
55292;SDS011;41157;53.560;10.098;2023-04-24T11:58:39;7.53;;;4.90;;
55292;SDS011;41157;53.560;10.098;2023-04-24T12:01:06;7.30;;;5.40;;
55292;SDS011;41157;53.560;10.098;2023-04-24T12:03:33;5.70;;;4.77;;
55292;SDS011;41157;53.560;10.098;2023-04-24T12:06:04;8.17;;;5.00;;
55292;SDS011;41157;53.560;10.098;2023-04-24T12:08:32;6.10;;;4.80;;
55292;SDS011;41157;53.560;10.098;2023-04-24T12:11:01;5.47;;;4.50;;
55292;SDS011;41157;53.560;10.098;2023-04-24T12:13:28;5.13;;;4.53;;
55292;SDS011;41157;53.560;10.098;2023-04-24T12:15:56;4.77;;;4.37;;
55292;SDS011;41157;53.560;10.098;2023-04-24T12:18:23;6.67;;;4.30;;
55292;SDS011;41157;53.560;10.098;2023-04-24T12:20:50;4.40;;;4.00;;
55292;SDS011;41157;53.560;10.098;2023-04-24T12:23:32;4.63;;;4.13;;
55292;SDS011;41157;53.560;10.098;2023-04-24T12:26:03;6.27;;;4.20;;
55292;SDS011;41157;53.560;10.098;2023-04-24T12:28:34;13.30;;;4.83;;
55292;SDS011;41157;53.560;10.098;2023-04-24T12:31:01;4.13;;;3.67;;
55292;SDS011;41157;53.560;10.098;2023-04-24T12:33:31;4.70;;;4.20;;
55292;SDS011;41157;53.560;10.098;2023-04-24T12:35:59;4.40;;;4.00;;
55292;SDS011;41157;53.560;10.098;2023-04-24T12:38:27;4.53;;;4.13;;
55292;SDS011;41157;53.560;10.098;2023-04-24T12:41:02;9.70;;;4.27;;
55292;SDS011;41157;53.560;10.098;2023-04-24T12:43:30;6.73;;;4.80;;
55292;SDS011;41157;53.560;10.098;2023-04-24T12:45:57;5.77;;;4.23;;
55292;SDS011;41157;53.560;10.098;2023-04-24T12:48:24;9.60;;;4.17;;
55292;SDS011;41157;53.560;10.098;2023-04-24T12:50:51;6.70;;;4.43;;
55292;SDS011;41157;53.560;10.098;2023-04-24T12:53:18;5.77;;;4.53;;
55292;SDS011;41157;53.560;10.098;2023-04-24T12:55:46;6.57;;;4.50;;
55292;SDS011;41157;53.560;10.098;2023-04-24T12:58:18;6.47;;;4.20;;
55292;SDS011;41157;53.560;10.098;2023-04-24T13:00:46;4.50;;;3.73;;
55292;SDS011;41157;53.560;10.098;2023-04-24T13:03:13;4.60;;;3.73;;
55292;SDS011;41157;53.560;10.098;2023-04-24T13:05:40;4.50;;;3.47;;
55292;SDS011;41157;53.560;10.098;2023-04-24T13:08:07;3.23;;;3.00;;
55292;SDS011;41157;53.560;10.098;2023-04-24T13:10:34;4.23;;;3.20;;
55292;SDS011;41157;53.560;10.098;2023-04-24T13:13:01;3.50;;;3.00;;
55292;SDS011;41157;53.560;10.098;2023-04-24T13:15:30;3.50;;;3.23;;
55292;SDS011;41157;53.560;10.098;2023-04-24T13:17:57;3.30;;;3.10;;
55292;SDS011;41157;53.560;10.098;2023-04-24T13:20:25;5.43;;;3.50;;
55292;SDS011;41157;53.560;10.098;2023-04-24T13:22:52;3.80;;;3.33;;
55292;SDS011;41157;53.560;10.098;2023-04-24T13:25:19;9.17;;;3.57;;
55292;SDS011;41157;53.560;10.098;2023-04-24T13:27:48;3.93;;;3.53;;
55292;SDS011;41157;53.560;10.098;2023-04-24T13:30:15;4.73;;;3.70;;
55292;SDS011;41157;53.560;10.098;2023-04-24T13:32:44;8.87;;;4.90;;
55292;SDS011;41157;53.560;10.098;2023-04-24T13:35:11;8.90;;;3.67;;
55292;SDS011;41157;53.560;10.098;2023-04-24T13:37:38;4.47;;;3.27;;
55292;SDS011;41157;53.560;10.098;2023-04-24T13:40:05;4.17;;;3.77;;
55292;SDS011;41157;53.560;10.098;2023-04-24T13:42:32;6.43;;;3.10;;
55292;SDS011;41157;53.560;10.098;2023-04-24T13:44:59;4.10;;;3.70;;
55292;SDS011;41157;53.560;10.098;2023-04-24T13:47:26;4.47;;;3.67;;
55292;SDS011;41157;53.560;10.098;2023-04-24T13:49:55;5.13;;;3.43;;
55292;SDS011;41157;53.560;10.098;2023-04-24T13:52:22;3.70;;;3.40;;
55292;SDS011;41157;53.560;10.098;2023-04-24T13:54:49;5.20;;;3.53;;
55292;SDS011;41157;53.560;10.098;2023-04-24T13:57:16;3.77;;;3.47;;
55292;SDS011;41157;53.560;10.098;2023-04-24T13:59:43;4.07;;;3.17;;
55292;SDS011;41157;53.560;10.098;2023-04-24T14:02:10;4.83;;;3.37;;
55292;SDS011;41157;53.560;10.098;2023-04-24T14:04:37;4.73;;;3.33;;
55292;SDS011;41157;53.560;10.098;2023-04-24T14:07:05;6.47;;;3.73;;
55292;SDS011;41157;53.560;10.098;2023-04-24T14:09:33;4.00;;;3.53;;
55292;SDS011;41157;53.560;10.098;2023-04-24T14:12:00;4.40;;;3.90;;
55292;SDS011;41157;53.560;10.098;2023-04-24T14:14:28;4.20;;;3.20;;
55292;SDS011;41157;53.560;10.098;2023-04-24T14:16:55;3.90;;;3.50;;
55292;SDS011;41157;53.560;10.098;2023-04-24T14:19:22;3.83;;;3.40;;
55292;SDS011;41157;53.560;10.098;2023-04-24T14:21:49;6.57;;;3.27;;
55292;SDS011;41157;53.560;10.098;2023-04-24T14:24:18;4.27;;;3.87;;
55292;SDS011;41157;53.560;10.098;2023-04-24T14:26:45;3.77;;;3.47;;
55292;SDS011;41157;53.560;10.098;2023-04-24T14:29:12;4.40;;;3.80;;
55292;SDS011;41157;53.560;10.098;2023-04-24T14:31:39;4.90;;;3.53;;
55292;SDS011;41157;53.560;10.098;2023-04-24T14:34:06;3.93;;;3.50;;
55292;SDS011;41157;53.560;10.098;2023-04-24T14:36:33;3.90;;;3.60;;
55292;SDS011;41157;53.560;10.098;2023-04-24T14:39:00;3.70;;;3.40;;
55292;SDS011;41157;53.560;10.098;2023-04-24T14:41:31;3.93;;;3.00;;
55292;SDS011;41157;53.560;10.098;2023-04-24T14:44:00;3.90;;;3.20;;